Time;durP1;ratioP1;P1;durP2;ratioP2;P2;SDS_P1;SDS_P2;PMS_P1;PMS_P2;Temp;Humidity;BMP_temperature;BMP_pressure;BME280_temperature;BME280_humidity;BME280_pressure;Samples;Min_cycle;Max_cycle;Signal;HPM_P1;HPM_P2
2022/03/10 00:01:28;;;;;;;5.10;4.03;;;2.00;99.90;;;;;;5004857;28;20779;-89
2022/03/10 00:03:54;;;;;;;5.40;3.37;;;2.00;99.90;;;;;;5006022;28;20265;-88
2022/03/10 00:06:20;;;;;;;4.20;3.70;;;1.90;99.90;;;;;;5001442;28;20223;-88
2022/03/10 00:08:45;;;;;;;8.23;4.30;;;1.90;99.90;;;;;;5002123;28;20217;-89
2022/03/10 00:11:11;;;;;;;6.77;3.63;;;1.90;99.90;;;;;;4984422;28;20558;-88
2022/03/10 00:13:37;;;;;;;2.77;2.57;;;1.90;99.90;;;;;;5014001;28;20219;-89
2022/03/10 00:16:03;;;;;;;2.47;2.27;;;1.80;99.90;;;;;;4988091;28;20219;-88
2022/03/10 00:18:28;;;;;;;3.50;2.03;;;1.80;99.90;;;;;;5005340;28;20342;-89
2022/03/10 00:20:54;;;;;;;2.53;2.33;;;1.70;99.90;;;;;;4987583;28;20211;-87
2022/03/10 00:23:20;;;;;;;4.53;3.70;;;1.80;99.90;;;;;;5005208;28;20183;-88
2022/03/10 00:25:45;;;;;;;5.30;2.77;;;2.00;99.90;;;;;;5005615;28;20195;-89
2022/03/10 00:28:11;;;;;;;3.03;2.87;;;2.00;99.90;;;;;;4989809;28;20676;-87
2022/03/10 00:30:37;;;;;;;6.23;1.53;;;1.90;99.90;;;;;;4988367;28;20226;-88
2022/03/10 00:33:03;;;;;;;3.27;3.00;;;1.90;99.90;;;;;;5007012;28;21171;-88
2022/03/10 00:35:29;;;;;;;7.13;2.73;;;2.00;99.90;;;;;;5006337;28;20219;-87
2022/03/10 00:37:56;;;;;;;4.50;2.70;;;2.00;99.90;;;;;;5007640;28;20195;-89
2022/03/10 00:40:21;;;;;;;2.73;2.23;;;1.90;99.90;;;;;;5009169;28;20222;-89
2022/03/10 00:42:47;;;;;;;3.03;2.80;;;1.90;99.90;;;;;;5008012;28;20218;-88
2022/03/10 00:45:16;;;;;;;3.27;2.90;;;1.90;99.90;;;;;;4991602;28;20246;-87
2022/03/10 00:47:42;;;;;;;4.10;3.67;;;1.80;99.90;;;;;;5000339;28;20235;-89
2022/03/10 00:50:09;;;;;;;2.67;2.10;;;1.80;99.90;;;;;;5009462;28;20183;-89
2022/03/10 00:52:45;;;;;;;4.17;3.13;;;2.10;99.90;;;;;;5008612;28;20254;-89
2022/03/10 00:55:15;;;;;;;2.27;2.17;;;2.50;99.90;;;;;;5009092;28;20236;-90
2022/03/10 00:57:41;;;;;;;2.60;2.50;;;2.60;99.90;;;;;;5007785;28;20282;-87
2022/03/10 01:00:07;;;;;;;4.97;3.23;;;2.60;99.90;;;;;;5008489;28;20210;-88
2022/03/10 01:02:34;;;;;;;3.20;2.97;;;2.70;99.90;;;;;;5007308;28;20206;-87
2022/03/10 01:05:01;;;;;;;6.33;2.17;;;2.70;99.90;;;;;;5007702;28;20253;-88
2022/03/10 01:07:26;;;;;;;3.03;2.87;;;2.90;99.90;;;;;;5016783;28;20218;-88
2022/03/10 01:09:52;;;;;;;2.47;2.37;;;2.80;99.90;;;;;;5007355;28;20214;-88
2022/03/10 01:12:18;;;;;;;3.40;2.80;;;2.40;99.90;;;;;;5006118;28;20731;-89
2022/03/10 01:14:44;;;;;;;3.23;2.93;;;2.20;99.90;;;;;;4990562;28;20241;-87
2022/03/10 01:17:10;;;;;;;3.17;2.87;;;1.90;99.90;;;;;;5007825;28;20592;-87
2022/03/10 01:19:36;;;;;;;3.17;2.87;;;1.80;99.90;;;;;;4992180;28;20667;-87
2022/03/10 01:22:02;;;;;;;3.37;3.10;;;1.70;99.90;;;;;;4991478;28;20300;-87
2022/03/10 01:24:28;;;;;;;3.57;2.30;;;1.60;99.90;;;;;;5018128;28;20245;-87
2022/03/10 01:26:54;;;;;;;1.93;1.83;;;1.60;99.90;;;;;;4990663;28;20222;-89
2022/03/10 01:29:19;;;;;;;2.47;2.37;;;1.70;99.90;;;;;;4990107;28;20200;-89
2022/03/10 01:31:45;;;;;;;6.00;3.00;;;1.60;99.90;;;;;;4992337;28;20176;-90
2022/03/10 01:34:13;;;;;;;3.07;2.80;;;1.60;99.90;;;;;;5006881;28;20695;-86
2022/03/10 01:36:40;;;;;;;3.13;2.93;;;1.60;99.90;;;;;;5016054;28;20230;-89
2022/03/10 01:39:06;;;;;;;8.93;3.17;;;1.60;99.90;;;;;;5006140;28;20230;-87
2022/03/10 01:41:32;;;;;;;3.30;3.00;;;1.60;99.90;;;;;;5000721;28;20190;-89
2022/03/10 01:44:04;;;;;;;3.03;2.83;;;1.60;99.90;;;;;;5017024;28;20655;-89
2022/03/10 01:46:30;;;;;;;4.70;2.93;;;1.80;99.90;;;;;;5004311;28;20760;-88
2022/03/10 01:48:57;;;;;;;3.13;2.80;;;2.00;99.90;;;;;;4988273;28;20224;-89
2022/03/10 01:51:24;;;;;;;4.23;2.50;;;2.00;99.90;;;;;;4996423;28;20222;-88
2022/03/10 01:53:50;;;;;;;1.63;1.53;;;1.90;99.90;;;;;;4979870;28;20589;-87
2022/03/10 01:56:21;;;;;;;3.23;2.93;;;1.80;99.90;;;;;;4979736;28;20201;-87
2022/03/10 01:58:49;;;;;;;1.63;1.53;;;2.00;99.90;;;;;;4998158;28;20219;-87
2022/03/10 02:01:16;;;;;;;3.50;2.70;;;2.40;99.90;;;;;;4978949;28;20754;-88
2022/03/10 02:03:42;;;;;;;1.80;1.70;;;2.60;99.90;;;;;;4962446;28;20222;-87
2022/03/10 02:06:09;;;;;;;1.60;1.43;;;2.70;99.90;;;;;;4979771;28;20239;-87
2022/03/10 02:11:20;;;;;;;2.53;2.33;;;2.60;99.90;;;;;;4996670;28;20677;-87
2022/03/10 02:13:46;;;;;;;3.37;2.50;;;1.90;99.90;;;;;;4978868;28;20188;-88
2022/03/10 02:18:59;;;;;;;2.83;2.63;;;1.40;99.90;;;;;;4994951;28;20208;-88
2022/03/10 02:21:26;;;;;;;3.00;1.93;;;1.30;99.90;;;;;;4978514;28;20358;-88
2022/03/10 02:23:52;;;;;;;1.50;1.40;;;1.50;99.90;;;;;;4962733;28;20228;-88
2022/03/10 02:26:18;;;;;;;2.60;2.40;;;1.90;99.90;;;;;;4981959;28;20199;-88
2022/03/10 02:28:44;;;;;;;2.90;2.63;;;2.00;99.90;;;;;;4979889;28;20224;-87
2022/03/10 02:31:10;;;;;;;4.20;3.90;;;1.80;99.90;;;;;;4979246;28;20673;-88
2022/03/10 02:33:36;;;;;;;2.93;2.63;;;1.50;99.90;;;;;;4980168;28;20238;-87
2022/03/10 02:36:02;;;;;;;5.33;2.70;;;1.30;99.90;;;;;;4978516;28;20314;-88
2022/03/10 02:38:29;;;;;;;2.87;2.60;;;1.20;99.90;;;;;;4977939;28;20200;-89
2022/03/10 02:40:55;;;;;;;3.63;2.77;;;1.40;99.90;;;;;;4996450;28;20599;-89
2022/03/10 02:43:21;;;;;;;1.03;1.03;;;1.40;99.90;;;;;;4995287;28;20362;-90
2022/03/10 02:45:47;;;;;;;3.43;1.90;;;1.30;99.90;;;;;;4996210;28;20242;-89
2022/03/10 02:48:14;;;;;;;8.67;4.77;;;1.30;99.90;;;;;;5014333;28;20299;-89
2022/03/10 02:50:40;;;;;;;3.43;2.10;;;1.50;99.90;;;;;;5004381;28;20302;-89
2022/03/10 02:53:06;;;;;;;3.30;2.53;;;1.70;99.90;;;;;;5006195;28;20233;-89
2022/03/10 02:55:32;;;;;;;2.07;1.97;;;1.90;99.90;;;;;;5005081;28;20234;-90
2022/03/10 02:57:58;;;;;;;6.80;2.87;;;1.90;99.90;;;;;;5021025;28;20241;-89
2022/03/10 03:00:24;;;;;;;2.93;2.33;;;1.80;99.90;;;;;;5005148;28;20254;-90
2022/03/10 03:02:50;;;;;;;3.53;3.00;;;1.60;99.90;;;;;;5004238;28;20314;-89
2022/03/10 03:05:16;;;;;;;2.10;1.50;;;1.40;99.90;;;;;;5004842;28;20626;-89
2022/03/10 03:07:44;;;;;;;2.20;2.07;;;1.30;99.90;;;;;;5020180;28;20699;-90
2022/03/10 03:10:10;;;;;;;4.57;3.13;;;1.30;99.90;;;;;;5004285;28;20237;-90
2022/03/10 03:12:46;;;;;;;3.00;2.50;;;1.30;99.90;;;;;;5004319;28;20274;-91
2022/03/10 03:15:12;;;;;;;2.47;2.37;;;1.30;99.90;;;;;;5000341;28;20284;-90
2022/03/10 03:17:38;;;;;;;27.03;2.93;;;1.40;99.90;;;;;;4984672;28;20235;-88
2022/03/10 03:20:04;;;;;;;4.10;3.00;;;1.50;99.90;;;;;;5001076;28;20544;-92
2022/03/10 03:22:31;;;;;;;1.90;1.63;;;1.50;99.90;;;;;;4968274;28;20227;-92
2022/03/10 03:24:57;;;;;;;2.63;2.40;;;1.60;99.90;;;;;;5000968;28;20570;-90
2022/03/10 03:27:23;;;;;;;1.43;1.40;;;1.60;99.90;;;;;;4986553;28;20681;-91
2022/03/10 03:29:49;;;;;;;3.17;2.17;;;1.50;99.90;;;;;;5002747;28;20222;-89
2022/03/10 03:32:15;;;;;;;3.13;2.93;;;1.40;99.90;;;;;;4987271;28;20196;-87
2022/03/10 03:34:40;;;;;;;1.57;1.57;;;1.20;99.90;;;;;;5018787;28;20758;-87
2022/03/10 03:37:07;;;;;;;1.97;1.80;;;1.10;99.90;;;;;;5004390;28;20227;-88
2022/03/10 03:39:32;;;;;;;2.43;2.23;;;1.10;99.90;;;;;;5003269;28;20268;-87
2022/03/10 03:41:58;;;;;;;2.83;2.67;;;0.80;99.90;;;;;;5003640;28;20566;-88
2022/03/10 03:44:24;;;;;;;3.50;2.47;;;0.70;99.90;;;;;;5004370;28;20703;-88
2022/03/10 03:46:50;;;;;;;5.57;1.63;;;0.80;99.90;;;;;;4989907;28;20558;-87
2022/03/10 03:49:16;;;;;;;2.17;1.93;;;1.10;99.90;;;;;;5006809;28;20233;-87
2022/03/10 03:51:41;;;;;;;7.90;4.07;;;1.00;99.90;;;;;;5006645;28;20249;-87
2022/03/10 03:54:07;;;;;;;3.53;2.03;;;0.80;99.90;;;;;;5007724;28;20231;-87
2022/03/10 03:56:39;;;;;;;2.10;1.83;;;0.60;99.90;;;;;;5004200;28;20602;-87
2022/03/10 03:59:05;;;;;;;2.87;2.67;;;0.60;99.90;;;;;;4988430;28;20667;-87
2022/03/10 04:01:31;;;;;;;3.43;3.23;;;0.60;99.90;;;;;;5002759;28;20246;-87
2022/03/10 04:03:57;;;;;;;2.80;2.63;;;0.60;99.90;;;;;;5006884;28;20772;-87
2022/03/10 04:06:23;;;;;;;3.30;2.03;;;0.40;99.90;;;;;;4990562;28;20227;-88
2022/03/10 04:08:48;;;;;;;2.50;2.13;;;0.20;99.90;;;;;;5008891;28;20218;-87
2022/03/10 04:11:16;;;;;;;8.10;2.80;;;0.10;99.90;;;;;;4994878;28;20182;-87
2022/03/10 04:13:42;;;;;;;2.53;2.33;;;0.10;99.90;;;;;;5009804;28;20210;-88
2022/03/10 04:16:08;;;;;;;3.00;2.73;;;0.10;99.90;;;;;;4990707;28;20218;-87
2022/03/10 04:18:34;;;;;;;3.97;3.47;;;0.00;99.90;;;;;;5024264;28;20269;-87
2022/03/10 04:21:00;;;;;;;1.20;1.20;;;0.30;99.90;;;;;;4990530;28;20225;-87
2022/03/10 04:23:26;;;;;;;2.60;2.40;;;0.60;99.90;;;;;;4977689;28;20526;-87
2022/03/10 04:25:53;;;;;;;2.07;1.97;;;0.70;99.90;;;;;;5010604;28;20207;-88
2022/03/10 04:28:19;;;;;;;2.60;1.83;;;0.80;99.90;;;;;;5029786;28;20760;-87
2022/03/10 04:30:45;;;;;;;6.87;2.53;;;0.90;99.90;;;;;;5027073;28;20729;-87
2022/03/10 04:33:11;;;;;;;2.63;2.43;;;0.90;99.90;;;;;;5009613;28;20214;-87
2022/03/10 04:35:37;;;;;;;6.57;2.37;;;1.00;99.90;;;;;;5026012;28;20255;-87
2022/03/10 04:38:03;;;;;;;2.43;2.23;;;1.00;99.90;;;;;;5009964;28;20234;-87
2022/03/10 04:40:29;;;;;;;6.70;2.60;;;1.00;99.90;;;;;;5010425;28;20203;-90
2022/03/10 04:42:55;;;;;;;1.53;1.43;;;1.00;99.90;;;;;;5027165;28;20256;-88
2022/03/10 04:45:21;;;;;;;4.90;4.40;;;0.90;99.90;;;;;;5009693;28;20214;-89
2022/03/10 04:47:47;;;;;;;3.03;1.87;;;1.00;99.90;;;;;;4992898;28;20322;-88
2022/03/10 04:50:14;;;;;;;3.17;2.93;;;0.90;99.90;;;;;;5008013;28;20279;-88
2022/03/10 04:52:41;;;;;;;2.67;2.40;;;1.00;99.90;;;;;;5005535;28;20215;-88
2022/03/10 04:55:08;;;;;;;6.10;1.97;;;1.10;99.90;;;;;;5006241;28;20223;-87
2022/03/10 04:57:34;;;;;;;3.37;3.17;;;1.20;99.90;;;;;;4988421;28;20236;-88
2022/03/10 05:00:01;;;;;;;2.73;2.27;;;1.30;99.90;;;;;;4986562;28;20329;-87
2022/03/10 05:02:26;;;;;;;3.07;2.80;;;1.40;99.90;;;;;;4986496;28;20199;-87
2022/03/10 05:04:52;;;;;;;2.77;2.37;;;1.40;99.90;;;;;;5003607;28;20199;-89
2022/03/10 05:07:18;;;;;;;1.73;1.63;;;1.30;99.90;;;;;;4986661;28;20584;-89
2022/03/10 05:09:43;;;;;;;1.03;0.90;;;1.30;99.90;;;;;;4985828;28;20692;-87
2022/03/10 05:12:10;;;;;;;2.00;1.60;;;1.30;99.90;;;;;;5002122;28;21018;-87
2022/03/10 05:14:35;;;;;;;2.10;1.93;;;1.10;99.90;;;;;;4987148;28;20207;-87
2022/03/10 05:17:02;;;;;;;2.90;2.37;;;1.10;99.90;;;;;;4988172;28;20195;-85
2022/03/10 05:19:28;;;;;;;5.97;2.77;;;1.00;99.90;;;;;;4985436;28;20262;-87
2022/03/10 05:21:54;;;;;;;4.03;3.67;;;0.70;99.90;;;;;;5003248;28;20373;-88
2022/03/10 05:24:19;;;;;;;2.03;1.83;;;0.40;99.90;;;;;;4970701;28;20238;-87
2022/03/10 05:26:45;;;;;;;7.10;1.97;;;0.30;99.90;;;;;;4987807;28;20218;-87
2022/03/10 05:29:11;;;;;;;1.80;1.63;;;0.20;99.90;;;;;;5015874;28;20196;-87
2022/03/10 05:31:38;;;;;;;3.20;3.00;;;0.30;99.90;;;;;;5005028;28;20219;-88
2022/03/10 05:34:04;;;;;;;7.67;2.90;;;0.30;99.90;;;;;;5006132;28;20243;-87
2022/03/10 05:36:30;;;;;;;3.73;3.33;;;0.20;99.90;;;;;;5021073;28;20243;-89
2022/03/10 05:38:55;;;;;;;5.07;2.17;;;0.30;99.90;;;;;;5005772;28;20836;-88
2022/03/10 05:41:21;;;;;;;2.70;2.27;;;0.10;99.90;;;;;;4988814;28;20203;-88
2022/03/10 05:43:47;;;;;;;3.47;2.00;;;0.20;99.90;;;;;;4972486;28;20220;-88
2022/03/10 05:46:12;;;;;;;2.10;2.00;;;0.20;99.90;;;;;;5020714;28;20274;-87
2022/03/10 05:48:38;;;;;;;3.27;3.10;;;0.30;99.90;;;;;;4971776;28;20235;-87
2022/03/10 05:51:04;;;;;;;3.53;2.33;;;0.30;99.90;;;;;;4972876;28;20300;-87
2022/03/10 05:53:30;;;;;;;3.10;2.83;;;0.20;99.90;;;;;;4970809;28;20187;-88
2022/03/10 05:55:55;;;;;;;3.20;2.27;;;0.30;99.90;;;;;;4988540;28;20223;-87
2022/03/10 05:58:21;;;;;;;2.20;2.10;;;0.20;99.90;;;;;;5003427;28;21051;-87
2022/03/10 06:00:47;;;;;;;4.10;2.87;;;0.20;99.90;;;;;;5004353;28;20231;-87
2022/03/10 06:03:12;;;;;;;2.27;2.07;;;0.30;99.90;;;;;;4988466;28;20711;-88
2022/03/10 06:05:38;;;;;;;2.13;2.03;;;0.30;99.90;;;;;;4988987;28;20672;-86
2022/03/10 06:08:04;;;;;;;3.33;2.20;;;0.30;99.90;;;;;;5006012;28;20192;-87
2022/03/10 06:10:30;;;;;;;4.83;3.40;;;0.30;99.90;;;;;;5019957;28;20218;-88
2022/03/10 06:12:56;;;;;;;2.20;2.10;;;0.30;99.90;;;;;;5005053;28;20223;-88
2022/03/10 06:15:21;;;;;;;3.00;2.80;;;0.40;99.90;;;;;;4988151;28;20226;-87
2022/03/10 06:17:47;;;;;;;3.90;2.20;;;0.50;99.90;;;;;;5004091;28;20277;-88
2022/03/10 06:20:14;;;;;;;3.50;2.97;;;0.50;99.90;;;;;;4988449;28;20266;-87
2022/03/10 06:22:40;;;;;;;1.30;1.23;;;0.60;99.90;;;;;;5002562;28;20223;-86
2022/03/10 06:25:08;;;;;;;2.40;2.27;;;0.80;99.90;;;;;;4987444;28;20273;-88
2022/03/10 06:27:34;;;;;;;3.63;2.20;;;0.90;99.90;;;;;;5003606;28;20227;-87
2022/03/10 06:29:59;;;;;;;2.53;2.37;;;1.30;99.90;;;;;;4985844;28;20265;-87
2022/03/10 06:32:25;;;;;;;2.03;1.93;;;1.30;99.90;;;;;;5004239;28;20195;-86
2022/03/10 06:34:53;;;;;;;3.30;3.00;;;1.40;99.90;;;;;;5003213;28;20277;-86
2022/03/10 06:37:20;;;;;;;5.20;2.97;;;1.10;99.90;;;;;;5001326;28;20285;-87
2022/03/10 06:39:46;;;;;;;4.07;3.00;;;1.10;99.90;;;;;;4984937;28;20215;-87
2022/03/10 06:42:12;;;;;;;2.47;2.27;;;0.90;99.90;;;;;;4986610;28;20315;-89
2022/03/10 06:44:37;;;;;;;3.07;2.70;;;1.10;99.90;;;;;;4986788;28;20195;-87
2022/03/10 06:47:09;;;;;;;5.80;3.47;;;1.50;99.90;;;;;;4987992;28;20184;-87
2022/03/10 06:49:35;;;;;;;1.87;1.77;;;2.20;99.90;;;;;;5002792;28;20622;-89
2022/03/10 06:52:02;;;;;;;3.33;3.07;;;3.00;99.90;;;;;;5004610;28;20648;-86
2022/03/10 06:54:27;;;;;;;2.43;1.60;;;3.30;99.90;;;;;;5003728;28;20227;-87
2022/03/10 06:56:53;;;;;;;2.43;2.23;;;3.60;99.90;;;;;;4987563;28;20230;-87
2022/03/10 06:59:19;;;;;;;11.17;3.63;;;3.60;99.90;;;;;;4986641;28;20206;-85
2022/03/10 07:01:45;;;;;;;5.77;3.77;;;3.80;99.90;;;;;;4988179;28;20187;-88
2022/03/10 07:04:11;;;;;;;2.90;2.63;;;3.90;99.90;;;;;;4971735;28;20265;-90
2022/03/10 07:06:36;;;;;;;5.70;3.37;;;4.10;99.90;;;;;;4986913;28;20219;-88
2022/03/10 07:09:03;;;;;;;5.33;3.57;;;4.40;99.90;;;;;;4985903;28;20215;-87
2022/03/10 07:11:29;;;;;;;4.80;3.53;;;4.90;99.90;;;;;;5004113;28;20772;-88
2022/03/10 07:13:54;;;;;;;10.47;3.97;;;5.40;99.90;;;;;;5004454;28;20223;-91
2022/03/10 07:16:20;;;;;;;5.30;3.67;;;5.80;99.90;;;;;;5003738;28;20223;-87
2022/03/10 07:18:51;;;;;;;5.63;4.23;;;5.70;99.90;;;;;;4968399;28;20458;-87
2022/03/10 07:21:20;;;;;;;6.90;3.93;;;5.50;99.90;;;;;;4987451;28;20229;-88
2022/03/10 07:23:46;;;;;;;5.97;3.17;;;5.10;99.90;;;;;;4986696;28;20244;-88
2022/03/10 07:26:12;;;;;;;5.50;3.73;;;5.20;99.90;;;;;;4972139;28;20187;-87
2022/03/10 07:28:39;;;;;;;5.67;4.27;;;5.50;99.90;;;;;;5003381;28;20318;-88
2022/03/10 07:31:05;;;;;;;8.27;6.13;;;5.40;99.90;;;;;;5005145;28;20231;-89
2022/03/10 07:33:31;;;;;;;4.23;3.73;;;5.60;99.90;;;;;;5002710;28;20230;-87
2022/03/10 07:35:57;;;;;;;8.50;4.93;;;5.70;99.90;;;;;;5001091;28;20695;-87
2022/03/10 07:38:22;;;;;;;6.63;4.30;;;5.80;99.90;;;;;;4985408;28;20202;-88
2022/03/10 07:40:48;;;;;;;8.00;5.53;;;6.10;99.90;;;;;;4985557;28;20637;-88
2022/03/10 07:43:15;;;;;;;4.77;4.40;;;6.50;99.90;;;;;;4990599;28;20219;-88
2022/03/10 07:45:41;;;;;;;6.07;4.60;;;7.00;99.90;;;;;;5004947;28;20226;-88
2022/03/10 07:48:06;;;;;;;8.40;4.20;;;7.40;99.90;;;;;;4977650;28;20236;-89
2022/03/10 07:50:32;;;;;;;5.53;3.70;;;7.60;99.90;;;;;;4978700;28;20207;-88
2022/03/10 07:52:58;;;;;;;5.17;4.07;;;7.70;99.90;;;;;;4980398;28;20240;-87
2022/03/10 07:55:24;;;;;;;7.70;4.50;;;7.60;99.90;;;;;;4962134;28;20706;-91
2022/03/10 07:57:49;;;;;;;4.80;4.33;;;7.90;99.90;;;;;;4997464;28;20239;-89
2022/03/10 08:00:16;;;;;;;6.20;4.63;;;8.00;99.90;;;;;;4994279;28;20220;-89
2022/03/10 08:02:42;;;;;;;8.27;5.83;;;7.60;99.90;;;;;;4981940;28;20214;-89
2022/03/10 08:05:09;;;;;;;16.60;4.30;;;7.40;99.90;;;;;;4996443;28;20199;-91
2022/03/10 08:07:35;;;;;;;7.30;5.07;;;7.70;99.90;;;;;;4963493;28;20751;-88
2022/03/10 08:10:04;;;;;;;10.43;5.53;;;7.80;99.90;;;;;;4996159;28;20218;-90
2022/03/10 08:12:31;;;;;;;5.67;3.40;;;7.90;99.90;;;;;;4982373;28;20238;-91
2022/03/10 08:14:57;;;;;;;9.33;6.27;;;7.90;99.90;;;;;;4971065;28;20228;-91
2022/03/10 08:17:25;;;;;;;8.77;5.33;;;7.90;99.90;;;;;;4994073;28;20180;-89
2022/03/10 08:19:51;;;;;;;7.43;4.47;;;8.10;99.90;;;;;;4999646;28;20194;-90
2022/03/10 08:22:18;;;;;;;7.53;5.13;;;8.30;99.90;;;;;;4989289;28;20219;-91
2022/03/10 08:24:45;;;;;;;4.53;4.03;;;8.20;99.90;;;;;;4980663;28;20243;-89
2022/03/10 08:27:11;;;;;;;5.63;4.93;;;8.10;99.90;;;;;;4999207;28;20219;-88
2022/03/10 08:29:37;;;;;;;7.70;4.10;;;8.30;99.90;;;;;;4976769;28;20207;-89
2022/03/10 08:32:03;;;;;;;6.77;4.63;;;8.30;99.90;;;;;;4982109;28;20629;-91
2022/03/10 08:34:30;;;;;;;8.20;4.87;;;8.30;99.90;;;;;;4979429;28;20223;-91
2022/03/10 08:36:56;;;;;;;8.80;4.50;;;8.40;99.90;;;;;;4979105;28;20712;-90
2022/03/10 08:39:22;;;;;;;8.80;4.70;;;8.60;99.90;;;;;;4979498;28;20219;-90
2022/03/10 08:41:49;;;;;;;9.20;6.43;;;8.60;99.90;;;;;;4995980;28;20222;-90
2022/03/10 08:44:16;;;;;;;6.20;5.37;;;8.60;99.90;;;;;;4980988;28;20200;-90
2022/03/10 08:46:42;;;;;;;8.60;5.03;;;8.60;99.90;;;;;;4972764;28;20223;-89
2022/03/10 08:49:08;;;;;;;8.03;5.47;;;8.80;99.90;;;;;;5005551;28;20235;-90
2022/03/10 08:51:34;;;;;;;7.57;5.07;;;9.00;99.90;;;;;;5006214;28;20297;-90
2022/03/10 08:54:00;;;;;;;9.83;4.97;;;9.00;99.90;;;;;;4990595;28;20210;-91
2022/03/10 08:56:25;;;;;;;11.17;5.67;;;9.20;99.90;;;;;;5005731;28;20215;-92
2022/03/10 08:58:51;;;;;;;7.63;4.77;;;9.00;99.90;;;;;;5015875;28;20198;-92
2022/03/10 09:01:17;;;;;;;13.37;6.63;;;8.80;99.90;;;;;;4991238;28;21341;-91
2022/03/10 09:03:43;;;;;;;10.03;5.97;;;9.00;99.90;;;;;;5008872;28;20218;-91
2022/03/10 09:06:12;;;;;;;9.40;4.80;;;8.90;99.90;;;;;;5007982;28;20214;-92
2022/03/10 09:08:38;;;;;;;8.57;4.73;;;8.40;99.90;;;;;;4993503;28;20187;-90
2022/03/10 09:11:04;;;;;;;7.43;4.63;;;8.30;99.90;;;;;;5004086;28;20731;-88
2022/03/10 09:13:30;;;;;;;11.00;7.00;;;8.40;99.90;;;;;;4990505;28;20240;-91
2022/03/10 09:15:56;;;;;;;7.53;5.37;;;8.50;99.90;;;;;;4991257;28;20250;-88
2022/03/10 09:18:22;;;;;;;8.53;3.70;;;8.60;99.90;;;;;;5005892;28;20227;-92
2022/03/10 09:20:47;;;;;;;5.33;4.07;;;8.60;99.90;;;;;;4983950;28;20249;-93
2022/03/10 09:23:13;;;;;;;6.43;5.03;;;8.70;99.90;;;;;;5007051;28;20190;-92
2022/03/10 09:25:39;;;;;;;9.83;3.93;;;8.70;99.90;;;;;;4996236;28;20211;-93
2022/03/10 09:28:05;;;;;;;6.73;4.77;;;8.70;99.90;;;;;;5013511;28;20691;-93
2022/03/10 09:30:31;;;;;;;5.93;3.97;;;8.80;99.90;;;;;;4996217;28;20219;-95
2022/03/10 09:32:57;;;;;;;6.80;4.87;;;8.80;99.90;;;;;;5009714;28;20557;-94
2022/03/10 09:35:25;;;;;;;5.77;3.53;;;9.00;99.90;;;;;;4994365;28;20225;-91
2022/03/10 09:37:52;;;;;;;13.43;5.70;;;8.90;99.90;;;;;;5010267;28;20329;-89
2022/03/10 09:40:18;;;;;;;9.00;5.23;;;8.80;99.90;;;;;;5020487;28;20249;-93
2022/03/10 09:42:47;;;;;;;14.73;3.60;;;8.70;99.90;;;;;;5007717;28;20566;-88
2022/03/10 09:45:15;;;;;;;5.83;4.20;;;8.70;99.90;;;;;;5015723;28;20226;-89
2022/03/10 09:47:43;;;;;;;9.03;5.20;;;8.80;99.90;;;;;;5023589;28;20230;-92
2022/03/10 09:50:12;;;;;;;4.10;3.43;;;9.00;99.90;;;;;;4974506;28;20706;-94
2022/03/10 09:52:38;;;;;;;8.10;3.97;;;9.20;99.90;;;;;;5005392;28;20246;-94
2022/03/10 09:55:06;;;;;;;8.10;5.03;;;9.20;99.90;;;;;;4990345;28;20223;-90
2022/03/10 09:57:34;;;;;;;9.13;5.57;;;9.40;99.90;;;;;;5017629;28;20715;-90
2022/03/10 10:00:00;;;;;;;8.97;5.17;;;9.60;99.90;;;;;;5017195;28;20307;-93
2022/03/10 10:02:29;;;;;;;8.83;5.77;;;9.60;99.90;;;;;;5007980;28;20199;-93
2022/03/10 10:04:56;;;;;;;7.80;5.47;;;9.60;99.90;;;;;;4992262;28;20195;-90
2022/03/10 10:07:26;;;;;;;11.63;5.27;;;9.80;99.90;;;;;;5023821;28;20332;-91
2022/03/10 10:09:55;;;;;;;8.07;4.87;;;9.90;99.90;;;;;;5004676;28;20222;-93
2022/03/10 10:12:30;;;;;;;9.30;5.33;;;10.10;99.90;;;;;;5004605;28;20760;-93
2022/03/10 10:14:57;;;;;;;9.03;4.53;;;10.90;99.90;;;;;;5005499;28;20242;-93
2022/03/10 10:17:31;;;;;;;10.53;5.23;;;11.70;99.90;;;;;;5007568;28;20620;-95
2022/03/10 10:19:59;;;;;;;15.13;5.43;;;12.00;99.90;;;;;;5000252;28;20281;-94
2022/03/10 10:22:26;;;;;;;10.90;5.30;;;12.60;99.90;;;;;;5019112;28;20225;-93
2022/03/10 10:24:59;;;;;;;9.77;4.63;;;12.60;99.90;;;;;;5008259;28;20559;-94
2022/03/10 10:27:28;;;;;;;7.30;5.10;;;12.80;99.90;;;;;;5014203;28;20268;-94
2022/03/10 10:29:56;;;;;;;11.73;6.50;;;12.80;99.90;;;;;;5020828;28;20222;-95
2022/03/10 10:32:48;;;;;;;10.10;6.63;;;12.70;99.90;;;;;;5020892;28;20183;-93
2022/03/10 10:35:23;;;;;;;10.63;6.63;;;13.00;99.90;;;;;;5018827;28;20227;-88
2022/03/10 10:37:51;;;;;;;15.27;7.40;;;12.80;99.90;;;;;;5017248;28;20219;-88
2022/03/10 10:40:27;;;;;;;12.00;6.80;;;12.60;99.90;;;;;;5000107;28;20249;-91
2022/03/10 10:42:53;;;;;;;7.83;6.17;;;12.20;99.90;;;;;;4999924;28;20210;-90
2022/03/10 10:45:32;;;;;;;11.40;6.50;;;12.00;99.90;;;;;;4996870;28;20241;-90
2022/03/10 10:48:03;;;;;;;13.40;6.70;;;11.80;99.90;;;;;;5021394;28;21067;-92
2022/03/10 10:50:33;;;;;;;11.60;7.03;;;11.80;99.90;;;;;;4996654;28;20187;-94
2022/03/10 10:52:59;;;;;;;8.73;6.77;;;11.90;99.90;;;;;;5023026;28;20222;-89
2022/03/10 10:55:41;;;;;;;10.10;5.57;;;12.20;99.90;;;;;;5006195;28;20638;-91
2022/03/10 10:58:08;;;;;;;8.07;5.80;;;12.70;99.90;;;;;;5007325;28;20225;-92
2022/03/10 11:00:47;;;;;;;10.83;6.57;;;12.90;99.90;;;;;;5019880;28;20443;-88
2022/03/10 11:03:28;;;;;;;13.80;5.77;;;13.30;99.90;;;;;;5026018;28;20229;-93
2022/03/10 11:05:54;;;;;;;11.47;6.00;;;13.60;99.90;;;;;;5020901;28;20246;-85
2022/03/10 11:08:22;;;;;;;7.63;5.37;;;13.80;99.90;;;;;;5013152;28;20224;-89
2022/03/10 11:10:49;;;;;;;9.73;7.10;;;13.90;99.90;;;;;;5018197;28;20858;-95
2022/03/10 11:13:15;;;;;;;10.57;6.47;;;14.10;99.90;;;;;;5031876;28;20284;-90
2022/03/10 11:15:42;;;;;;;14.17;7.50;;;13.80;99.90;;;;;;4997996;28;20712;-86
2022/03/10 11:18:12;;;;;;;14.43;7.63;;;13.90;99.90;;;;;;4986077;23;20228;-95
2022/03/10 11:20:41;;;;;;;10.50;7.17;;;14.30;99.90;;;;;;4968561;28;20196;-95
2022/03/10 11:23:35;;;;;;;12.33;7.63;;;14.30;99.90;;;;;;4985069;28;20183;-94
2022/03/10 11:26:19;;;;;;;14.60;7.90;;;14.20;99.90;;;;;;4954204;28;20744;-93
2022/03/10 11:28:47;;;;;;;12.23;6.20;;;13.90;99.90;;;;;;4980470;28;20238;-93
2022/03/10 11:31:14;;;;;;;13.97;7.70;;;14.00;99.90;;;;;;4947383;28;20271;-93
2022/03/10 11:33:40;;;;;;;15.50;8.33;;;14.10;99.90;;;;;;4960308;28;20232;-93
2022/03/10 11:36:20;;;;;;;11.77;7.67;;;13.80;99.90;;;;;;4938044;28;20228;-93
2022/03/10 11:38:58;;;;;;;11.57;6.07;;;13.60;99.90;;;;;;4969040;28;20685;-93
2022/03/10 11:41:25;;;;;;;17.70;8.23;;;13.50;99.90;;;;;;4969401;28;20218;-90
2022/03/10 11:44:02;;;;;;;15.23;8.57;;;13.90;99.90;;;;;;4945701;28;20212;-92
2022/03/10 11:46:30;;;;;;;10.17;6.97;;;14.40;99.90;;;;;;4969267;28;20238;-91
2022/03/10 11:49:11;;;;;;;14.30;6.80;;;14.30;99.90;;;;;;4955544;28;20235;-91
2022/03/10 11:51:44;;;;;;;19.57;10.23;;;14.20;99.90;;;;;;4987513;28;20278;-89
2022/03/10 11:54:11;;;;;;;17.93;7.33;;;14.50;99.90;;;;;;4983754;28;20259;-88
2022/03/10 11:56:43;;;;;;;12.33;7.03;;;14.80;99.90;;;;;;4968722;28;20196;-90
2022/03/10 11:59:37;;;;;;;13.70;7.13;;;14.90;99.90;;;;;;4958235;28;20232;-89
2022/03/10 12:02:04;;;;;;;15.53;7.77;;;14.70;99.90;;;;;;4970037;28;20229;-90
2022/03/10 12:04:38;;;;;;;17.30;7.27;;;14.70;99.90;;;;;;4938290;28;20239;-90
2022/03/10 12:07:05;;;;;;;10.53;7.03;;;14.60;99.90;;;;;;4971717;28;20215;-91
2022/03/10 12:09:36;;;;;;;15.10;7.83;;;14.90;99.90;;;;;;4971553;28;20247;-90
2022/03/10 12:12:20;;;;;;;12.03;6.67;;;14.60;99.90;;;;;;4962477;28;20223;-90
2022/03/10 12:14:46;;;;;;;13.47;7.00;;;14.30;99.90;;;;;;4977090;28;20231;-91
2022/03/10 12:17:43;;;;;;;13.83;7.43;;;14.40;99.90;;;;;;4965937;28;20235;-90
2022/03/10 12:20:17;;;;;;;11.53;5.70;;;14.60;99.90;;;;;;4971352;28;20643;-91
2022/03/10 12:23:15;;;;;;;9.77;6.40;;;14.70;99.90;;;;;;4984114;28;20220;-90
2022/03/10 12:25:53;;;;;;;14.70;7.47;;;14.60;99.90;;;;;;5008833;28;20265;-91
2022/03/10 12:28:29;;;;;;;12.33;7.80;;;14.60;99.90;;;;;;4977855;28;20208;-91
2022/03/10 12:31:10;;;;;;;17.00;8.50;;;14.60;99.90;;;;;;4973512;28;20207;-91
2022/03/10 12:33:46;;;;;;;15.03;7.40;;;14.60;99.90;;;;;;4992922;28;20212;-90
2022/03/10 12:36:15;;;;;;;14.43;8.30;;;14.60;99.90;;;;;;4974999;28;20632;-92
2022/03/10 12:38:45;;;;;;;13.03;6.00;;;14.60;99.90;;;;;;4975493;28;20224;-92
2022/03/10 12:41:14;;;;;;;11.37;7.17;;;14.60;99.90;;;;;;4960310;28;20250;-92
2022/03/10 12:43:41;;;;;;;10.10;6.50;;;14.50;99.90;;;;;;4974666;28;20215;-93
2022/03/10 12:46:08;;;;;;;12.67;6.73;;;14.60;99.90;;;;;;4973840;28;20212;-93
2022/03/10 12:49:01;;;;;;;14.63;7.10;;;14.60;99.90;;;;;;4972955;28;20308;-92
2022/03/10 12:51:30;;;;;;;9.83;5.13;;;14.60;99.90;;;;;;4999745;28;20222;-92
2022/03/10 12:53:58;;;;;;;10.43;6.57;;;14.50;99.90;;;;;;4993995;28;20235;-91
2022/03/10 12:56:25;;;;;;;12.60;5.77;;;14.50;99.90;;;;;;4992368;28;20188;-92
2022/03/10 12:58:57;;;;;;;9.80;6.50;;;14.50;99.90;;;;;;4995637;28;20728;-90
2022/03/10 13:01:24;;;;;;;12.43;7.00;;;14.50;99.90;;;;;;4994748;28;20575;-91